createdAt,value
2022-12-15T00:00:17.308Z,6.40
2022-12-15T00:03:02.948Z,4.43
2022-12-15T00:05:50.169Z,4.22
2022-12-15T00:08:36.365Z,6.50
2022-12-15T00:11:22.321Z,6.22
2022-12-15T00:14:07.761Z,5.47
2022-12-15T00:16:53.223Z,6.57
2022-12-15T00:19:38.667Z,6.22
2022-12-15T00:22:25.036Z,6.38
2022-12-15T00:25:10.647Z,6.35
2022-12-15T00:27:55.978Z,7.60
2022-12-15T00:30:41.463Z,5.15
2022-12-15T00:33:29.301Z,4.90
2022-12-15T00:36:17.816Z,5.82
2022-12-15T00:38:45.593Z,5.03
2022-12-15T00:41:16.488Z,6.97
2022-12-15T00:43:44.305Z,5.03
2022-12-15T00:46:30.349Z,5.18
2022-12-15T00:48:57.492Z,5.50
2022-12-15T00:51:43.664Z,6.32
2022-12-15T00:54:29.542Z,5.80
2022-12-15T00:57:15.635Z,7.07
2022-12-15T01:00:01.235Z,7.22
2022-12-15T01:02:46.692Z,6.72
2022-12-15T01:05:32.033Z,6.50
2022-12-15T01:08:18.492Z,5.40
2022-12-15T01:11:03.837Z,5.60
2022-12-15T01:13:49.771Z,5.28
2022-12-15T01:16:35.793Z,4.03
2022-12-15T01:19:21.003Z,3.17
2022-12-15T01:21:49.606Z,2.50
2022-12-15T01:24:16.465Z,2.47
2022-12-15T01:26:43.360Z,4.82
2022-12-15T01:29:10.202Z,6.10
2022-12-15T01:31:37.088Z,6.20
2022-12-15T01:34:03.952Z,7.68
2022-12-15T01:36:31.174Z,7.20
2022-12-15T01:38:57.976Z,5.80
2022-12-15T01:41:25.083Z,6.55
2022-12-15T01:43:51.955Z,6.25
2022-12-15T01:46:24.807Z,8.90
2022-12-15T01:49:23.814Z,8.32
2022-12-15T01:51:56.032Z,9.07
2022-12-15T01:54:33.587Z,6.55
2022-12-15T01:57:07.100Z,5.45
2022-12-15T01:59:39.426Z,5.78
2022-12-15T02:02:06.488Z,6.65
2022-12-15T02:04:34.313Z,7.85
2022-12-15T02:07:01.096Z,9.77
2022-12-15T02:09:28.581Z,9.15
2022-12-15T02:11:55.276Z,7.70
2022-12-15T02:14:44.917Z,8.85
2022-12-15T02:17:33.781Z,7.75
2022-12-15T02:20:50.298Z,8.32
2022-12-15T02:24:32.832Z,7.95
2022-12-15T02:27:36.876Z,7.70
2022-12-15T02:30:18.593Z,8.38
2022-12-15T02:33:01.370Z,5.90
2022-12-15T02:35:56.150Z,7.40
2022-12-15T02:38:49.312Z,7.80
2022-12-15T02:41:36.473Z,8.43
2022-12-15T02:44:56.481Z,8.13
2022-12-15T02:47:31.443Z,7.25
2022-12-15T02:50:25.295Z,6.03
2022-12-15T02:53:07.043Z,6.68
2022-12-15T02:56:19.118Z,6.00
2022-12-15T02:59:33.110Z,7.10
2022-12-15T03:02:07.590Z,6.18
2022-12-15T03:04:34.732Z,8.77
2022-12-15T03:07:09.337Z,6.47
2022-12-15T03:09:36.350Z,7.00
2022-12-15T03:12:03.323Z,5.25
2022-12-15T03:14:30.279Z,6.38
2022-12-15T03:16:57.193Z,6.55
2022-12-15T03:19:24.278Z,6.07
2022-12-15T03:21:51.305Z,5.93
2022-12-15T03:24:18.095Z,5.00
2022-12-15T03:26:48.513Z,4.13
2022-12-15T03:29:16.448Z,4.95
2022-12-15T03:31:44.369Z,5.65
2022-12-15T03:34:11.427Z,5.60
2022-12-15T03:36:38.516Z,6.43
2022-12-15T03:39:05.599Z,6.53
2022-12-15T03:41:32.753Z,6.65
2022-12-15T03:44:00.725Z,6.43
2022-12-15T03:46:27.742Z,7.22
2022-12-15T03:48:54.665Z,6.47
2022-12-15T03:51:21.837Z,6.38
2022-12-15T03:53:49.275Z,5.15
2022-12-15T03:56:17.296Z,5.85
2022-12-15T03:58:44.132Z,6.00
2022-12-15T04:01:27.938Z,6.50
2022-12-15T04:04:00.594Z,6.00
2022-12-15T04:06:29.434Z,6.30
2022-12-15T04:08:56.264Z,5.10
2022-12-15T04:11:23.172Z,5.97
2022-12-15T04:13:50.037Z,6.60
2022-12-15T04:16:20.191Z,5.93
2022-12-15T04:19:07.924Z,5.68
2022-12-15T04:21:34.761Z,5.50
2022-12-15T04:24:20.277Z,5.60
2022-12-15T04:27:05.680Z,4.35
2022-12-15T04:29:51.177Z,6.63
2022-12-15T04:32:36.435Z,6.60
2022-12-15T04:35:21.938Z,6.93
2022-12-15T04:38:07.333Z,9.30
2022-12-15T04:40:52.974Z,7.90
2022-12-15T04:43:38.195Z,7.45
2022-12-15T04:46:23.937Z,7.43
2022-12-15T04:49:09.687Z,7.25
2022-12-15T04:51:55.080Z,7.97
2022-12-15T04:54:40.596Z,7.00
2022-12-15T04:57:25.987Z,6.60
2022-12-15T05:00:11.484Z,8.35
2022-12-15T05:02:56.815Z,8.57
2022-12-15T05:05:42.179Z,7.38
2022-12-15T05:08:27.603Z,7.35
2022-12-15T05:11:12.887Z,7.28
2022-12-15T05:13:58.270Z,8.38
2022-12-15T05:16:43.689Z,7.30
2022-12-15T05:19:29.035Z,7.30
2022-12-15T05:22:14.622Z,9.77
2022-12-15T05:25:00.094Z,8.25
2022-12-15T05:27:45.399Z,11.18
2022-12-15T05:30:30.722Z,6.10
2022-12-15T05:32:57.563Z,6.03
2022-12-15T05:35:24.651Z,7.22
2022-12-15T05:37:51.655Z,6.65
2022-12-15T05:40:18.474Z,6.85
2022-12-15T05:42:49.974Z,7.53
2022-12-15T05:45:17.192Z,7.68
2022-12-15T05:47:43.982Z,8.60
2022-12-15T05:50:10.856Z,7.72
2022-12-15T05:52:37.684Z,5.63
2022-12-15T05:55:05.800Z,6.28
2022-12-15T05:57:32.580Z,6.72
2022-12-15T05:59:59.370Z,9.10
2022-12-15T06:02:28.536Z,9.63
2022-12-15T06:04:55.502Z,8.75
2022-12-15T06:07:22.457Z,6.72
2022-12-15T06:09:49.321Z,8.40
2022-12-15T06:12:16.573Z,6.68
2022-12-15T06:14:43.391Z,8.10
2022-12-15T06:17:10.209Z,7.50
2022-12-15T06:19:37.007Z,4.40
2022-12-15T06:22:03.862Z,0.70
2022-12-15T06:24:30.700Z,1.17
2022-12-15T06:26:57.601Z,6.55
2022-12-15T06:29:24.480Z,6.30
2022-12-15T06:31:51.367Z,8.35
2022-12-15T06:34:19.344Z,8.02
2022-12-15T06:36:46.355Z,10.30
2022-12-15T06:39:15.385Z,10.73
2022-12-15T06:41:43.578Z,6.85
2022-12-15T06:44:15.558Z,8.00
2022-12-15T06:46:43.425Z,6.85
2022-12-15T06:49:10.486Z,7.70
2022-12-15T06:51:37.626Z,6.15
2022-12-15T06:54:04.625Z,5.15
2022-12-15T06:56:38.699Z,8.65
2022-12-15T06:59:07.468Z,6.93
2022-12-15T07:01:35.060Z,7.90
2022-12-15T07:04:04.740Z,6.65
2022-12-15T07:06:39.320Z,7.50
2022-12-15T07:09:16.024Z,5.70
2022-12-15T07:11:42.878Z,7.28
2022-12-15T07:14:10.413Z,7.25
2022-12-15T07:16:37.317Z,7.72
2022-12-15T07:19:04.314Z,10.65
2022-12-15T07:21:32.033Z,10.65
2022-12-15T07:24:00.021Z,9.65
2022-12-15T07:26:27.566Z,9.30
2022-12-15T07:28:54.650Z,8.35
2022-12-15T07:31:23.011Z,5.07
2022-12-15T07:33:52.089Z,8.60
2022-12-15T07:36:19.116Z,6.15
2022-12-15T07:38:50.442Z,5.60
2022-12-15T07:41:19.076Z,5.50
2022-12-15T07:43:47.063Z,6.95
2022-12-15T07:46:14.155Z,7.05
2022-12-15T07:48:41.074Z,8.68
2022-12-15T07:51:15.318Z,6.65
2022-12-15T07:53:50.006Z,6.95
2022-12-15T07:56:18.398Z,7.18
2022-12-15T07:58:45.461Z,7.88
2022-12-15T08:01:14.285Z,3.55
2022-12-15T08:03:41.711Z,2.20
2022-12-15T08:06:12.446Z,6.43
2022-12-15T08:08:40.338Z,9.63
2022-12-15T08:11:10.210Z,6.33
2022-12-15T08:14:02.098Z,5.55
2022-12-15T08:16:25.680Z,7.43
2022-12-15T08:18:52.753Z,3.42
2022-12-15T08:21:19.684Z,5.22
2022-12-15T08:23:46.784Z,9.95
2022-12-15T08:26:17.115Z,8.45
2022-12-15T08:28:45.068Z,7.70
2022-12-15T08:31:20.353Z,7.55
2022-12-15T08:33:48.469Z,7.18
2022-12-15T08:36:18.471Z,8.20
2022-12-15T08:38:46.827Z,5.85
2022-12-15T08:41:19.629Z,6.80
2022-12-15T08:43:49.259Z,6.55
2022-12-15T08:46:28.013Z,8.52
2022-12-15T08:48:55.618Z,10.23
2022-12-15T08:51:25.381Z,8.88
2022-12-15T08:53:52.756Z,6.70
2022-12-15T08:56:22.207Z,6.63
2022-12-15T08:58:51.007Z,6.72
2022-12-15T09:01:23.682Z,6.80
2022-12-15T09:03:56.272Z,5.35
2022-12-15T09:06:30.295Z,7.28
2022-12-15T09:09:00.339Z,8.10
2022-12-15T09:11:28.911Z,8.63
2022-12-15T09:13:56.483Z,8.80
2022-12-15T09:16:24.030Z,9.15
2022-12-15T09:18:54.679Z,9.63
2022-12-15T09:21:25.998Z,8.27
2022-12-15T09:23:55.795Z,11.00
2022-12-15T09:26:23.723Z,10.25
2022-12-15T09:28:51.148Z,11.27
2022-12-15T09:31:22.975Z,11.50
2022-12-15T09:33:52.469Z,12.63
2022-12-15T09:36:19.739Z,10.68
2022-12-15T09:38:47.874Z,11.90
2022-12-15T09:41:17.426Z,13.40
2022-12-15T09:44:15.912Z,8.35
2022-12-15T09:46:59.696Z,11.07
2022-12-15T09:49:55.319Z,9.35
2022-12-15T09:52:49.389Z,12.07
2022-12-15T09:55:24.827Z,2.17
2022-12-15T09:58:00.047Z,4.45
2022-12-15T10:00:55.267Z,9.93
2022-12-15T10:03:59.651Z,3.22
2022-12-15T10:06:38.015Z,8.75
2022-12-15T10:09:21.379Z,12.05
2022-12-15T10:12:00.536Z,14.30
2022-12-15T10:14:45.895Z,12.05
2022-12-15T10:17:42.532Z,12.50
2022-12-15T10:20:24.394Z,12.88
2022-12-15T10:22:51.385Z,12.57
2022-12-15T10:25:29.730Z,11.85
2022-12-15T10:28:16.207Z,7.82
2022-12-15T10:31:30.064Z,7.32
2022-12-15T10:34:10.910Z,12.68
2022-12-15T10:36:37.945Z,11.27
2022-12-15T10:39:04.801Z,11.10
2022-12-15T10:41:33.673Z,15.30
2022-12-15T10:44:02.545Z,9.45
2022-12-15T10:46:31.835Z,4.15
2022-12-15T10:49:07.614Z,17.02
2022-12-15T10:51:56.231Z,14.82
2022-12-15T10:54:27.262Z,14.60
2022-12-15T10:57:17.603Z,3.50
2022-12-15T10:59:44.644Z,15.50
2022-12-15T11:02:23.989Z,14.10
2022-12-15T11:05:16.760Z,12.40
2022-12-15T11:08:12.249Z,12.70
2022-12-15T11:11:12.748Z,13.10
2022-12-15T11:13:40.554Z,14.43
2022-12-15T11:16:19.327Z,9.50
2022-12-15T11:19:02.233Z,13.10
2022-12-15T11:21:36.907Z,15.80
2022-12-15T11:24:19.962Z,16.63
2022-12-15T11:26:52.250Z,9.93
2022-12-15T11:29:54.723Z,15.68
2022-12-15T11:32:26.885Z,11.07
2022-12-15T11:34:55.122Z,17.83
2022-12-15T11:37:45.034Z,15.25
2022-12-15T11:40:36.595Z,17.95
2022-12-15T11:43:36.826Z,13.75
2022-12-15T11:46:22.647Z,15.80
2022-12-15T11:49:01.654Z,13.43
2022-12-15T11:52:03.356Z,14.75
2022-12-15T11:54:55.352Z,9.98
2022-12-15T11:57:30.817Z,19.27
2022-12-15T12:00:18.485Z,16.50
2022-12-15T12:03:25.481Z,10.85
2022-12-15T12:06:17.410Z,7.78
2022-12-15T12:09:36.270Z,18.38
2022-12-15T12:12:52.549Z,18.70
2022-12-15T12:16:01.828Z,8.25
2022-12-15T12:18:46.549Z,15.68
2022-12-15T12:21:29.976Z,9.30
2022-12-15T12:24:20.005Z,7.93
2022-12-15T12:27:05.546Z,16.42
2022-12-15T12:29:48.754Z,15.57
2022-12-15T12:32:34.936Z,16.55
2022-12-15T12:35:31.969Z,16.10
2022-12-15T12:38:10.680Z,16.90
2022-12-15T12:41:10.745Z,17.02
2022-12-15T12:43:50.257Z,18.67
2022-12-15T12:46:41.960Z,15.30
2022-12-15T12:49:26.093Z,16.58
2022-12-15T12:51:58.509Z,18.35
2022-12-15T12:54:34.349Z,18.88
2022-12-15T12:57:33.553Z,14.80
2022-12-15T13:00:32.467Z,11.32
2022-12-15T13:03:11.621Z,16.83
2022-12-15T13:05:40.993Z,17.05
2022-12-15T13:08:10.374Z,12.45
2022-12-15T13:10:43.407Z,15.65
2022-12-15T13:13:31.518Z,10.68
2022-12-15T13:16:24.690Z,11.35
2022-12-15T13:19:02.956Z,15.15
2022-12-15T13:21:41.834Z,11.27
2022-12-15T13:24:41.379Z,12.73
2022-12-15T13:27:16.962Z,15.90
2022-12-15T13:30:09.314Z,15.93
2022-12-15T13:32:45.647Z,6.38
2022-12-15T13:35:12.405Z,11.63
2022-12-15T13:37:58.904Z,10.93
2022-12-15T13:40:36.095Z,13.05
2022-12-15T13:43:05.890Z,16.88
2022-12-15T13:46:10.360Z,7.40
2022-12-15T13:49:27.535Z,9.40
2022-12-15T13:52:03.309Z,14.38
2022-12-15T13:54:35.934Z,15.32
2022-12-15T13:57:16.390Z,12.18
2022-12-15T13:59:49.385Z,15.75
2022-12-15T14:02:36.062Z,12.80
2022-12-15T14:05:22.079Z,13.60
2022-12-15T14:07:54.936Z,16.08
2022-12-15T14:10:28.109Z,11.45
2022-12-15T14:12:58.100Z,16.40
2022-12-15T14:15:34.183Z,15.68
2022-12-15T14:18:02.354Z,18.30
2022-12-15T14:20:40.282Z,15.05
2022-12-15T14:23:29.354Z,20.08
2022-12-15T14:26:11.333Z,13.02
2022-12-15T14:28:43.900Z,12.23
2022-12-15T14:31:21.581Z,14.98
2022-12-15T14:34:03.438Z,11.45
2022-12-15T14:36:31.502Z,13.63
2022-12-15T14:39:26.388Z,14.85
2022-12-15T14:41:55.192Z,11.10
2022-12-15T14:44:41.858Z,14.38
2022-12-15T14:47:26.940Z,13.57
2022-12-15T14:49:55.864Z,7.80
2022-12-15T14:52:37.775Z,12.15
2022-12-15T14:55:46.360Z,10.70
2022-12-15T14:58:41.293Z,10.23
2022-12-15T15:01:30.974Z,15.40
2022-12-15T15:04:24.520Z,15.45
2022-12-15T15:07:00.653Z,11.18
2022-12-15T15:09:32.640Z,7.63
2022-12-15T15:12:17.430Z,10.18
2022-12-15T15:14:49.645Z,13.95
2022-12-15T15:17:45.273Z,14.95
2022-12-15T15:20:35.775Z,14.60
2022-12-15T15:23:07.466Z,14.65
2022-12-15T15:25:39.249Z,16.55
2022-12-15T15:28:23.007Z,11.50
2022-12-15T15:31:06.102Z,19.13
2022-12-15T15:33:33.478Z,12.25
2022-12-15T15:36:02.602Z,19.40
2022-12-15T15:38:36.110Z,6.15
2022-12-15T15:41:18.379Z,17.67
2022-12-15T15:43:46.048Z,14.20
2022-12-15T15:46:23.252Z,15.02
2022-12-15T15:49:00.871Z,16.70
2022-12-15T15:51:30.598Z,17.40
2022-12-15T15:54:05.532Z,18.75
2022-12-15T15:56:32.468Z,16.10
2022-12-15T15:59:09.424Z,18.17
2022-12-15T16:01:36.355Z,14.07
2022-12-15T16:04:03.303Z,16.20
2022-12-15T16:06:30.225Z,13.10
2022-12-15T16:08:57.068Z,10.90
2022-12-15T16:11:26.728Z,16.05
2022-12-15T16:13:53.560Z,13.57
2022-12-15T16:16:25.152Z,18.63
2022-12-15T16:18:52.033Z,10.40
2022-12-15T16:21:22.214Z,14.00
2022-12-15T16:23:49.665Z,15.68
2022-12-15T16:26:27.259Z,14.02
2022-12-15T16:28:54.220Z,14.82
2022-12-15T16:31:42.059Z,12.52
2022-12-15T16:34:09.215Z,16.90
2022-12-15T16:36:36.273Z,8.88
2022-12-15T16:39:04.121Z,15.43
2022-12-15T16:41:33.068Z,14.30
2022-12-15T16:43:59.867Z,14.45
2022-12-15T16:46:26.785Z,15.38
2022-12-15T16:48:53.700Z,13.63
2022-12-15T16:51:38.948Z,4.82
2022-12-15T16:54:06.711Z,17.88
2022-12-15T16:56:33.802Z,15.20
2022-12-15T16:59:31.378Z,18.45
2022-12-15T17:01:48.256Z,12.25
2022-12-15T17:04:16.646Z,16.95
2022-12-15T17:06:43.748Z,20.13
2022-12-15T17:09:21.161Z,15.25
2022-12-15T17:11:48.403Z,11.98
2022-12-15T17:14:15.863Z,10.93
2022-12-15T17:16:42.755Z,15.40
2022-12-15T17:19:09.589Z,16.80
2022-12-15T17:21:49.882Z,16.08
2022-12-15T17:24:20.007Z,6.60
2022-12-15T17:26:47.010Z,11.05
2022-12-15T17:29:20.920Z,15.25
2022-12-15T17:31:47.908Z,15.23
2022-12-15T17:34:32.385Z,17.80
2022-12-15T17:37:03.031Z,9.35
2022-12-15T17:39:31.116Z,13.00
2022-12-15T17:42:01.148Z,15.88
2022-12-15T17:44:35.032Z,13.18
2022-12-15T17:47:04.395Z,17.63
2022-12-15T17:49:36.080Z,17.98
2022-12-15T17:52:16.899Z,15.43
2022-12-15T17:54:43.953Z,15.95
2022-12-15T17:57:13.940Z,17.05
2022-12-15T17:59:40.891Z,17.27
2022-12-15T18:02:13.266Z,12.65
2022-12-15T18:04:41.484Z,15.27
2022-12-15T18:07:20.339Z,14.70
2022-12-15T18:09:48.797Z,10.70
2022-12-15T18:12:26.099Z,15.20
2022-12-15T18:14:53.802Z,17.88
2022-12-15T18:17:21.109Z,18.33
2022-12-15T18:19:48.218Z,15.15
2022-12-15T18:22:22.259Z,16.95
2022-12-15T18:24:51.361Z,17.70
2022-12-15T18:27:27.864Z,14.23
2022-12-15T18:29:56.464Z,18.77
2022-12-15T18:32:26.277Z,14.00
2022-12-15T18:34:54.054Z,7.38
2022-12-15T18:37:24.540Z,11.32
2022-12-15T18:39:51.509Z,14.55
2022-12-15T18:42:21.418Z,14.75
2022-12-15T18:44:51.069Z,3.40
2022-12-15T18:47:20.975Z,13.68
2022-12-15T18:49:47.887Z,13.93
2022-12-15T18:52:30.033Z,10.38
2022-12-15T18:55:00.136Z,15.75
2022-12-15T18:57:35.836Z,14.25
2022-12-15T19:00:17.459Z,8.35
2022-12-15T19:02:44.406Z,13.20
2022-12-15T19:05:27.384Z,14.32
2022-12-15T19:08:10.085Z,14.20
2022-12-15T19:10:41.871Z,11.88
2022-12-15T19:13:17.774Z,15.90
2022-12-15T19:15:45.499Z,13.73
2022-12-15T19:18:41.712Z,8.95
2022-12-15T19:21:44.099Z,14.30
2022-12-15T19:24:48.515Z,14.00
2022-12-15T19:27:23.197Z,14.55
2022-12-15T19:29:50.920Z,14.20
2022-12-15T19:32:17.793Z,12.77
2022-12-15T19:34:44.693Z,16.08
2022-12-15T19:37:22.391Z,13.75
2022-12-15T19:39:49.546Z,17.00
2022-12-15T19:42:25.500Z,16.02
2022-12-15T19:44:52.320Z,14.85
2022-12-15T19:47:19.249Z,13.23
2022-12-15T19:49:46.108Z,11.32
2022-12-15T19:52:17.793Z,7.13
2022-12-15T19:54:47.257Z,10.95
2022-12-15T19:57:17.591Z,11.27
2022-12-15T19:59:44.981Z,13.60
2022-12-15T20:02:20.381Z,13.35
2022-12-15T20:04:48.411Z,11.00
2022-12-15T20:07:29.458Z,14.10
2022-12-15T20:09:57.995Z,10.32
2022-12-15T20:12:25.117Z,13.23
2022-12-15T20:14:52.325Z,11.88
2022-12-15T20:17:19.112Z,13.95
2022-12-15T20:19:46.114Z,10.73
2022-12-15T20:22:19.186Z,11.98
2022-12-15T20:24:47.970Z,10.80
2022-12-15T20:27:17.790Z,11.77
2022-12-15T20:29:45.361Z,8.93
2022-12-15T20:32:19.863Z,13.00
2022-12-15T20:34:47.060Z,12.13
2022-12-15T20:37:29.387Z,9.18
2022-12-15T20:39:57.812Z,11.30
2022-12-15T20:42:25.480Z,12.98
2022-12-15T20:44:52.293Z,10.90
2022-12-15T20:47:26.478Z,11.52
2022-12-15T20:49:54.900Z,11.07
2022-12-15T20:52:26.292Z,9.00
2022-12-15T20:54:54.220Z,13.27
2022-12-15T20:57:21.475Z,12.80
2022-12-15T20:59:48.371Z,12.63
2022-12-15T21:02:22.354Z,12.05
2022-12-15T21:04:50.821Z,10.68
2022-12-15T21:07:18.751Z,7.45
2022-12-15T21:09:45.568Z,11.65
2022-12-15T21:12:27.621Z,11.13
2022-12-15T21:14:55.070Z,8.27
2022-12-15T21:17:25.623Z,8.20
2022-12-15T21:19:52.832Z,9.88
2022-12-15T21:22:25.494Z,11.40
2022-12-15T21:24:55.304Z,7.72
2022-12-15T21:27:22.764Z,11.32
2022-12-15T21:29:52.599Z,10.90
2022-12-15T21:32:20.873Z,9.00
2022-12-15T21:34:47.760Z,8.77
2022-12-15T21:37:27.443Z,9.73
2022-12-15T21:39:55.093Z,11.35
2022-12-15T21:42:22.518Z,2.97
2022-12-15T21:44:49.375Z,11.00
2022-12-15T21:47:49.745Z,8.60
2022-12-15T21:50:19.702Z,11.52
2022-12-15T21:52:47.646Z,6.78
2022-12-15T21:55:21.272Z,6.60
2022-12-15T21:57:48.121Z,11.40
2022-12-15T22:00:17.639Z,10.50
2022-12-15T22:02:46.633Z,9.48
2022-12-15T22:05:22.557Z,9.35
2022-12-15T22:07:50.515Z,11.23
2022-12-15T22:10:19.112Z,9.05
2022-12-15T22:12:57.407Z,8.40
2022-12-15T22:15:26.233Z,9.40
2022-12-15T22:17:53.058Z,10.45
2022-12-15T22:20:24.029Z,9.45
2022-12-15T22:22:51.301Z,6.95
2022-12-15T22:25:25.049Z,10.85
2022-12-15T22:27:52.620Z,9.75
2022-12-15T22:30:26.317Z,10.10
2022-12-15T22:32:55.811Z,9.05
2022-12-15T22:35:25.910Z,9.85
2022-12-15T22:37:53.956Z,9.20
2022-12-15T22:40:23.294Z,6.45
2022-12-15T22:42:57.800Z,10.00
2022-12-15T22:45:24.948Z,9.25
2022-12-15T22:47:55.060Z,10.05
2022-12-15T22:50:26.808Z,7.00
2022-12-15T22:52:55.215Z,9.30
2022-12-15T22:55:24.364Z,8.45
2022-12-15T22:58:01.434Z,7.75
2022-12-15T23:00:28.533Z,9.70
2022-12-15T23:05:29.260Z,8.55
2022-12-15T23:07:56.188Z,5.47
2022-12-15T23:10:42.031Z,9.23
2022-12-15T23:13:08.925Z,8.02
2022-12-15T23:15:54.773Z,5.18
2022-12-15T23:18:21.681Z,6.90
2022-12-15T23:20:48.630Z,9.32
2022-12-15T23:23:15.509Z,7.65
2022-12-15T23:25:42.443Z,9.82
2022-12-15T23:28:09.310Z,7.90
2022-12-15T23:30:36.325Z,9.55
2022-12-15T23:33:03.237Z,9.23
2022-12-15T23:35:30.091Z,8.05
2022-12-15T23:37:58.485Z,8.80
2022-12-15T23:40:25.343Z,7.82
2022-12-15T23:42:53.612Z,9.13
2022-12-15T23:45:20.826Z,9.38
2022-12-15T23:47:47.743Z,8.77
2022-12-15T23:50:14.788Z,9.50
2022-12-15T23:52:41.597Z,6.20
2022-12-15T23:55:11.582Z,8.48
2022-12-15T23:57:39.344Z,4.10
